createdAt,value
2023-03-18T00:00:15.562Z,99.90
2023-03-18T00:03:03.263Z,99.90
2023-03-18T00:05:31.264Z,99.90
2023-03-18T00:07:58.459Z,99.90
2023-03-18T00:10:26.386Z,99.90
2023-03-18T00:12:53.648Z,99.90
2023-03-18T00:15:21.238Z,99.90
2023-03-18T00:17:51.386Z,99.90
2023-03-18T00:20:28.939Z,99.90
2023-03-18T00:22:57.588Z,99.90
2023-03-18T00:25:26.506Z,99.90
2023-03-18T00:27:53.472Z,99.90
2023-03-18T00:30:20.854Z,99.90
2023-03-18T00:32:49.086Z,99.90
2023-03-18T00:35:18.050Z,99.90
2023-03-18T00:37:45.268Z,99.90
2023-03-18T00:40:17.506Z,99.90
2023-03-18T00:42:47.701Z,99.90
2023-03-18T00:45:17.513Z,99.90
2023-03-18T00:47:44.942Z,99.90
2023-03-18T00:50:12.490Z,99.90
2023-03-18T00:52:39.712Z,99.90
2023-03-18T00:55:08.338Z,99.90
2023-03-18T00:57:35.477Z,99.90
2023-03-18T01:00:04.755Z,99.90
2023-03-18T01:02:32.162Z,99.90
2023-03-18T01:04:59.423Z,99.90
2023-03-18T01:07:27.086Z,99.90
2023-03-18T01:09:54.880Z,99.90
2023-03-18T01:12:22.773Z,99.90
2023-03-18T01:14:50.178Z,99.90
2023-03-18T01:17:17.356Z,99.90
2023-03-18T01:19:44.781Z,99.90
2023-03-18T01:22:11.830Z,99.90
2023-03-18T01:24:39.520Z,99.90
2023-03-18T01:27:07.676Z,99.90
2023-03-18T01:29:36.288Z,99.90
2023-03-18T01:32:03.846Z,99.90
2023-03-18T01:34:31.464Z,99.90
2023-03-18T01:36:58.931Z,99.90
2023-03-18T01:41:53.845Z,99.90
2023-03-18T01:44:23.466Z,99.90
2023-03-18T01:46:52.826Z,99.90
2023-03-18T01:49:35.385Z,99.90
2023-03-18T01:52:11.621Z,99.90
2023-03-18T01:54:44.517Z,99.90
2023-03-18T01:57:12.771Z,99.90
2023-03-18T01:59:42.252Z,99.90
2023-03-18T02:02:13.007Z,99.90
2023-03-18T02:04:44.501Z,99.90
2023-03-18T02:07:20.478Z,99.90
2023-03-18T02:09:49.937Z,99.90
2023-03-18T02:12:22.714Z,99.90
2023-03-18T02:14:50.849Z,99.90
2023-03-18T02:17:22.614Z,99.90
2023-03-18T02:20:01.272Z,99.90
2023-03-18T02:22:31.162Z,99.90
2023-03-18T02:25:26.156Z,99.90
2023-03-18T02:28:01.344Z,99.90
2023-03-18T02:30:34.452Z,99.90
2023-03-18T02:33:02.291Z,99.90
2023-03-18T02:35:31.551Z,99.90
2023-03-18T02:37:58.912Z,99.90
2023-03-18T02:40:28.486Z,99.90
2023-03-18T02:42:55.885Z,99.90
2023-03-18T02:45:43.610Z,99.90
2023-03-18T02:48:15.223Z,99.90
2023-03-18T02:50:43.076Z,99.90
2023-03-18T02:53:12.851Z,99.90
2023-03-18T02:55:40.636Z,99.90
2023-03-18T02:58:08.068Z,99.90
2023-03-18T03:00:36.514Z,99.90
2023-03-18T03:03:04.154Z,99.90
2023-03-18T03:05:34.158Z,99.90
2023-03-18T03:08:01.172Z,99.90
2023-03-18T03:10:29.091Z,99.90
2023-03-18T03:12:56.945Z,99.90
2023-03-18T03:15:25.033Z,99.90
2023-03-18T03:17:52.350Z,99.90
2023-03-18T03:20:20.218Z,99.90
2023-03-18T03:22:47.393Z,99.90
2023-03-18T03:25:15.155Z,99.90
2023-03-18T03:27:43.685Z,99.90
2023-03-18T03:30:13.651Z,99.90
2023-03-18T03:32:41.246Z,99.90
2023-03-18T03:35:11.957Z,99.90
2023-03-18T03:37:38.919Z,99.90
2023-03-18T03:40:06.808Z,99.90
2023-03-18T03:42:33.836Z,99.90
2023-03-18T03:45:01.195Z,99.90
2023-03-18T03:47:28.192Z,99.90
2023-03-18T03:49:56.321Z,99.90
2023-03-18T03:52:23.503Z,99.90
2023-03-18T03:54:51.095Z,99.90
2023-03-18T03:57:19.066Z,99.90
2023-03-18T03:59:46.449Z,99.90
2023-03-18T04:02:13.841Z,99.90
2023-03-18T04:04:41.172Z,99.90
2023-03-18T04:07:08.387Z,99.90
2023-03-18T04:09:36.499Z,99.90
2023-03-18T04:12:03.884Z,99.90
2023-03-18T04:14:31.699Z,99.90
2023-03-18T04:17:00.470Z,99.90
2023-03-18T04:19:29.022Z,99.90
2023-03-18T04:21:56.818Z,99.90
2023-03-18T04:24:24.327Z,99.90
2023-03-18T04:26:51.364Z,99.90
2023-03-18T04:29:18.779Z,99.90
2023-03-18T04:31:45.760Z,99.90
2023-03-18T04:34:13.683Z,99.90
2023-03-18T04:36:40.840Z,99.90
2023-03-18T04:39:09.659Z,99.90
2023-03-18T04:41:37.676Z,99.90
2023-03-18T04:44:05.172Z,99.90
2023-03-18T04:46:32.795Z,99.90
2023-03-18T04:49:00.108Z,99.90
2023-03-18T04:51:27.547Z,99.90
2023-03-18T04:53:54.833Z,99.90
2023-03-18T04:56:22.091Z,99.90
2023-03-18T04:58:49.986Z,99.90
2023-03-18T05:01:17.291Z,99.90
2023-03-18T05:03:44.845Z,99.90
2023-03-18T05:06:25.299Z,99.90
2023-03-18T05:08:52.918Z,99.90
2023-03-18T05:11:20.820Z,99.90
2023-03-18T05:13:48.506Z,99.90
2023-03-18T05:16:15.709Z,99.90
2023-03-18T05:18:44.715Z,99.90
2023-03-18T05:21:11.898Z,99.90
2023-03-18T05:23:39.606Z,99.90
2023-03-18T05:26:06.721Z,99.90
2023-03-18T05:28:34.468Z,99.90
2023-03-18T05:31:01.707Z,99.90
2023-03-18T05:33:29.678Z,99.90
2023-03-18T05:35:57.023Z,99.90
2023-03-18T05:38:25.256Z,99.90
2023-03-18T05:40:52.434Z,99.90
2023-03-18T05:43:20.237Z,99.90
2023-03-18T05:45:47.458Z,99.90
2023-03-18T05:48:15.415Z,99.90
2023-03-18T05:50:43.372Z,99.90
2023-03-18T05:53:11.806Z,99.90
2023-03-18T05:55:40.545Z,99.90
2023-03-18T05:58:08.274Z,99.90
2023-03-18T06:00:36.074Z,99.90
2023-03-18T06:03:03.552Z,99.90
2023-03-18T06:05:31.304Z,99.90
2023-03-18T06:07:59.541Z,99.90
2023-03-18T06:10:26.873Z,99.90
2023-03-18T06:12:55.816Z,99.90
2023-03-18T06:15:24.402Z,99.90
2023-03-18T06:17:52.794Z,99.90
2023-03-18T06:20:20.247Z,99.90
2023-03-18T06:22:51.668Z,99.90
2023-03-18T06:25:20.941Z,99.90
2023-03-18T06:27:49.170Z,99.90
2023-03-18T06:30:17.313Z,99.90
2023-03-18T06:32:44.844Z,99.90
2023-03-18T06:35:12.449Z,99.90
2023-03-18T06:37:40.199Z,99.90
2023-03-18T06:40:09.604Z,99.90
2023-03-18T06:42:38.012Z,99.90
2023-03-18T06:45:05.666Z,99.90
2023-03-18T06:47:33.121Z,99.90
2023-03-18T06:50:00.296Z,99.90
2023-03-18T06:52:28.389Z,99.90
2023-03-18T06:54:55.360Z,99.90
2023-03-18T06:57:23.110Z,99.90
2023-03-18T06:59:50.783Z,99.90
2023-03-18T07:02:18.164Z,99.90
2023-03-18T07:04:45.290Z,99.90
2023-03-18T07:07:13.360Z,99.90
2023-03-18T07:09:40.839Z,99.90
2023-03-18T07:12:08.424Z,99.90
2023-03-18T07:14:35.487Z,99.90
2023-03-18T07:17:03.926Z,99.90
2023-03-18T07:19:32.392Z,99.00
2023-03-18T07:22:00.639Z,99.20
2023-03-18T07:24:28.530Z,98.10
2023-03-18T07:26:57.162Z,98.30
2023-03-18T07:29:24.401Z,97.10
2023-03-18T07:31:51.720Z,97.40
2023-03-18T07:34:19.329Z,96.80
2023-03-18T07:36:47.447Z,95.60
2023-03-18T07:39:14.907Z,95.10
2023-03-18T07:41:42.760Z,93.50
2023-03-18T07:44:09.862Z,93.10
2023-03-18T07:46:37.309Z,91.80
2023-03-18T07:49:04.409Z,90.40
2023-03-18T07:51:32.735Z,88.90
2023-03-18T07:54:00.301Z,85.90
2023-03-18T07:56:27.717Z,83.70
2023-03-18T07:58:54.806Z,82.80
2023-03-18T08:01:22.481Z,83.40
2023-03-18T08:03:49.890Z,82.00
2023-03-18T08:06:19.612Z,80.30
2023-03-18T08:08:47.397Z,82.70
2023-03-18T08:11:15.401Z,81.70
2023-03-18T08:13:42.923Z,84.80
2023-03-18T08:16:10.689Z,85.20
2023-03-18T08:18:37.990Z,83.30
2023-03-18T08:21:06.197Z,83.30
2023-03-18T08:23:33.680Z,81.40
2023-03-18T08:26:01.564Z,80.60
2023-03-18T08:28:28.961Z,78.30
2023-03-18T08:30:57.849Z,79.30
2023-03-18T08:33:27.127Z,75.20
2023-03-18T08:35:56.259Z,76.80
2023-03-18T08:38:24.918Z,76.70
2023-03-18T08:40:52.733Z,75.10
2023-03-18T08:43:22.306Z,73.70
2023-03-18T08:45:54.251Z,73.90
2023-03-18T08:48:23.059Z,74.20
2023-03-18T08:50:51.079Z,73.20
2023-03-18T08:53:18.198Z,70.30
2023-03-18T08:55:46.718Z,67.80
2023-03-18T08:58:13.923Z,66.70
2023-03-18T09:00:42.992Z,65.90
2023-03-18T09:03:10.461Z,63.70
2023-03-18T09:05:38.634Z,64.40
2023-03-18T09:08:06.629Z,63.90
2023-03-18T09:10:35.893Z,61.40
2023-03-18T09:13:03.442Z,61.70
2023-03-18T09:15:32.474Z,62.40
2023-03-18T09:18:10.742Z,63.40
2023-03-18T09:20:40.406Z,63.20
2023-03-18T09:23:08.896Z,63.10
2023-03-18T09:25:36.595Z,63.40
2023-03-18T09:28:03.912Z,62.90
2023-03-18T09:30:32.586Z,60.00
2023-03-18T09:32:59.740Z,61.00
2023-03-18T09:35:29.210Z,62.80
2023-03-18T09:37:56.460Z,63.50
2023-03-18T09:40:33.406Z,63.30
2023-03-18T09:43:13.206Z,63.70
2023-03-18T09:46:18.798Z,64.30
2023-03-18T09:49:04.840Z,59.20
2023-03-18T09:51:48.556Z,61.90
2023-03-18T09:54:19.347Z,64.60
2023-03-18T09:56:48.141Z,59.10
2023-03-18T09:59:26.772Z,59.40
2023-03-18T10:01:57.569Z,57.60
2023-03-18T10:04:46.389Z,57.90
2023-03-18T10:07:17.802Z,56.20
2023-03-18T10:09:55.676Z,58.90
2023-03-18T10:12:38.998Z,58.90
2023-03-18T10:15:19.770Z,60.50
2023-03-18T10:18:03.078Z,62.90
2023-03-18T10:20:56.133Z,63.00
2023-03-18T10:23:42.049Z,64.30
2023-03-18T10:26:19.723Z,63.60
2023-03-18T10:29:00.717Z,65.00
2023-03-18T10:31:52.967Z,64.70
2023-03-18T10:34:31.281Z,65.80
2023-03-18T10:37:07.407Z,64.00
2023-03-18T10:39:37.118Z,65.70
2023-03-18T10:42:19.904Z,66.50
2023-03-18T10:44:47.724Z,66.10
2023-03-18T10:47:31.272Z,65.20
2023-03-18T10:50:13.991Z,64.90
2023-03-18T10:53:01.459Z,67.20
2023-03-18T10:55:38.243Z,65.10
2023-03-18T10:58:15.440Z,64.60
2023-03-18T11:00:44.490Z,62.90
2023-03-18T11:03:27.359Z,61.50
2023-03-18T11:05:59.200Z,62.80
2023-03-18T11:08:43.544Z,62.40
2023-03-18T11:11:27.481Z,62.80
2023-03-18T11:17:06.547Z,62.80
2023-03-18T11:19:39.738Z,64.20
2023-03-18T11:22:10.265Z,63.90
2023-03-18T11:24:45.029Z,64.50
2023-03-18T11:27:15.969Z,62.80
2023-03-18T11:29:49.803Z,60.70
2023-03-18T11:32:34.363Z,65.30
2023-03-18T11:35:04.996Z,61.50
2023-03-18T11:37:40.573Z,62.50
2023-03-18T11:40:14.255Z,64.40
2023-03-18T11:42:42.283Z,62.60
2023-03-18T11:45:34.944Z,61.80
2023-03-18T11:48:03.692Z,62.50
2023-03-18T11:50:45.040Z,63.80
2023-03-18T11:53:46.945Z,64.70
2023-03-18T11:56:20.174Z,63.20
2023-03-18T11:59:01.060Z,65.20
2023-03-18T12:02:11.224Z,63.90
2023-03-18T12:05:12.533Z,61.90
2023-03-18T12:08:01.578Z,62.60
2023-03-18T12:10:36.218Z,61.50
2023-03-18T12:13:15.589Z,61.80
2023-03-18T12:15:47.338Z,62.10
2023-03-18T12:18:27.219Z,63.10
2023-03-18T12:21:00.001Z,62.70
2023-03-18T12:23:50.050Z,61.80
2023-03-18T12:26:40.777Z,63.50
2023-03-18T12:29:38.635Z,64.10
2023-03-18T12:32:25.519Z,64.70
2023-03-18T12:35:10.625Z,65.70
2023-03-18T12:37:56.230Z,63.20
2023-03-18T12:40:24.237Z,61.40
2023-03-18T12:43:06.127Z,62.00
2023-03-18T12:45:39.519Z,63.70
2023-03-18T12:48:43.531Z,66.00
2023-03-18T12:51:21.567Z,65.00
2023-03-18T12:54:10.298Z,62.40
2023-03-18T12:56:45.174Z,63.50
2023-03-18T12:59:19.270Z,63.30
2023-03-18T13:01:57.511Z,63.70
2023-03-18T13:04:29.964Z,65.20
2023-03-18T13:07:16.033Z,65.20
2023-03-18T13:09:54.103Z,65.30
2023-03-18T13:12:30.496Z,63.60
2023-03-18T13:15:20.759Z,63.10
2023-03-18T13:17:52.316Z,63.10
2023-03-18T13:20:35.537Z,59.90
2023-03-18T13:23:26.061Z,61.70
2023-03-18T13:25:58.557Z,63.60
2023-03-18T13:28:45.347Z,63.80
2023-03-18T13:31:37.237Z,62.70
2023-03-18T13:34:12.038Z,62.60
2023-03-18T13:36:51.031Z,64.30
2023-03-18T13:39:42.809Z,63.40
2023-03-18T13:42:22.247Z,62.10
2023-03-18T13:44:58.820Z,62.20
2023-03-18T13:47:31.426Z,61.30
2023-03-18T13:50:20.612Z,60.40
2023-03-18T13:52:48.944Z,60.30
2023-03-18T13:55:27.715Z,62.70
2023-03-18T13:58:22.941Z,61.10
2023-03-18T14:00:56.826Z,61.40
2023-03-18T14:03:39.030Z,61.90
2023-03-18T14:06:10.005Z,59.80
2023-03-18T14:08:42.301Z,60.50
2023-03-18T14:11:23.179Z,62.30
2023-03-18T14:14:02.100Z,60.20
2023-03-18T14:16:37.928Z,58.60
2023-03-18T14:19:22.176Z,58.80
2023-03-18T14:21:53.905Z,59.60
2023-03-18T14:24:26.151Z,59.00
2023-03-18T14:27:04.406Z,60.30
2023-03-18T14:29:37.475Z,58.80
2023-03-18T14:32:27.036Z,60.10
2023-03-18T14:34:57.518Z,60.50
2023-03-18T14:38:09.176Z,62.40
2023-03-18T14:40:41.045Z,62.40
2023-03-18T14:43:25.657Z,62.60
2023-03-18T14:45:57.240Z,63.00
2023-03-18T14:48:29.498Z,63.40
2023-03-18T14:51:00.307Z,62.60
2023-03-18T14:53:48.651Z,63.20
2023-03-18T14:56:30.304Z,62.10
2023-03-18T14:58:58.460Z,62.70
2023-03-18T15:01:47.139Z,63.70
2023-03-18T15:04:19.579Z,66.00
2023-03-18T15:09:21.310Z,64.60
2023-03-18T15:11:49.002Z,65.90
2023-03-18T15:14:23.575Z,66.10
2023-03-18T15:16:54.968Z,65.00
2023-03-18T15:19:23.719Z,66.50
2023-03-18T15:21:51.696Z,67.00
2023-03-18T15:24:23.129Z,67.20
2023-03-18T15:27:05.711Z,68.10
2023-03-18T15:29:37.388Z,68.50
2023-03-18T15:32:42.654Z,67.80
2023-03-18T15:35:28.687Z,69.50
2023-03-18T15:38:16.670Z,70.30
2023-03-18T15:40:52.660Z,70.30
2023-03-18T15:43:30.595Z,70.70
2023-03-18T15:46:00.920Z,71.40
2023-03-18T15:48:36.782Z,70.90
2023-03-18T15:51:09.967Z,71.40
2023-03-18T15:53:44.635Z,71.90
2023-03-18T15:59:07.152Z,72.00
2023-03-18T16:01:35.328Z,72.60
2023-03-18T16:04:06.283Z,73.20
2023-03-18T16:06:35.148Z,73.90
2023-03-18T16:09:20.236Z,74.40
2023-03-18T16:11:54.773Z,73.90
2023-03-18T16:14:26.073Z,74.70
2023-03-18T16:16:53.544Z,76.70
2023-03-18T16:19:25.823Z,77.40
2023-03-18T16:21:53.528Z,77.00
2023-03-18T16:24:21.400Z,77.50
2023-03-18T16:26:50.173Z,77.30
2023-03-18T16:29:36.851Z,78.20
2023-03-18T16:32:04.830Z,77.40
2023-03-18T16:34:32.353Z,78.10
2023-03-18T16:37:00.190Z,79.00
2023-03-18T16:39:34.269Z,79.50
2023-03-18T16:42:03.191Z,80.00
2023-03-18T16:44:30.729Z,80.40
2023-03-18T16:46:58.495Z,79.80
2023-03-18T16:49:34.337Z,80.40
2023-03-18T16:52:04.484Z,80.40
2023-03-18T16:54:33.536Z,81.10
2023-03-18T16:57:04.356Z,81.50
2023-03-18T16:59:36.998Z,82.70
2023-03-18T17:02:06.021Z,83.50
2023-03-18T17:04:35.349Z,84.10
2023-03-18T17:07:04.772Z,84.50
2023-03-18T17:09:32.138Z,85.00
2023-03-18T17:12:05.383Z,85.40
2023-03-18T17:14:39.878Z,86.10
2023-03-18T17:17:17.215Z,86.20
2023-03-18T17:19:44.728Z,86.90
2023-03-18T17:22:24.534Z,87.00
2023-03-18T17:24:51.937Z,88.10
2023-03-18T17:27:25.633Z,88.50
2023-03-18T17:29:53.297Z,89.00
2023-03-18T17:32:22.415Z,88.70
2023-03-18T17:34:51.363Z,89.40
2023-03-18T17:37:20.506Z,89.90
2023-03-18T17:39:47.833Z,90.10
2023-03-18T17:42:33.072Z,90.00
2023-03-18T17:45:06.413Z,90.30
2023-03-18T17:47:33.878Z,90.20
2023-03-18T17:50:01.066Z,90.40
2023-03-18T17:52:28.431Z,90.30
2023-03-18T17:54:55.688Z,90.40
2023-03-18T17:57:22.985Z,90.30
2023-03-18T17:59:51.625Z,90.60
2023-03-18T18:02:20.312Z,90.50
2023-03-18T18:04:47.862Z,90.80
2023-03-18T18:07:21.854Z,90.80
2023-03-18T18:09:49.642Z,91.20
2023-03-18T18:12:22.076Z,91.30
2023-03-18T18:14:49.731Z,91.60
2023-03-18T18:17:17.416Z,91.40
2023-03-18T18:19:45.629Z,91.70
2023-03-18T18:22:22.224Z,91.50
2023-03-18T18:24:50.494Z,91.70
2023-03-18T18:27:18.789Z,91.60
2023-03-18T18:29:46.577Z,91.90
2023-03-18T18:32:15.517Z,91.90
2023-03-18T18:34:42.592Z,92.20
2023-03-18T18:37:10.024Z,92.30
2023-03-18T18:39:37.133Z,92.50
2023-03-18T18:42:04.740Z,92.70
2023-03-18T18:44:31.851Z,93.00
2023-03-18T18:47:00.046Z,92.70
2023-03-18T18:49:27.150Z,92.90
2023-03-18T18:51:56.176Z,92.70
2023-03-18T18:54:24.517Z,93.10
2023-03-18T18:56:52.476Z,93.20
2023-03-18T18:59:27.553Z,93.40
2023-03-18T19:01:55.588Z,93.20
2023-03-18T19:04:23.788Z,93.50
2023-03-18T19:06:52.519Z,93.20
2023-03-18T19:09:23.836Z,93.40
2023-03-18T19:11:52.339Z,93.10
2023-03-18T19:14:29.596Z,93.30
2023-03-18T19:16:59.315Z,93.80
2023-03-18T19:19:32.477Z,94.10
2023-03-18T19:22:00.463Z,94.10
2023-03-18T19:24:28.609Z,94.50
2023-03-18T19:27:02.115Z,94.50
2023-03-18T19:29:29.608Z,94.50
2023-03-18T19:31:57.138Z,94.60
2023-03-18T19:34:24.740Z,94.80
2023-03-18T19:36:55.300Z,95.00
2023-03-18T19:39:22.886Z,95.30
2023-03-18T19:41:51.333Z,94.80
2023-03-18T19:44:24.200Z,95.00
2023-03-18T19:46:54.772Z,94.80
2023-03-18T19:49:35.726Z,94.90
2023-03-18T19:52:18.009Z,94.80
2023-03-18T19:54:46.331Z,95.00
2023-03-18T19:57:20.672Z,95.00
2023-03-18T19:59:49.393Z,95.10
2023-03-18T20:02:33.995Z,95.10
2023-03-18T20:05:03.841Z,95.50
2023-03-18T20:07:32.780Z,95.50
2023-03-18T20:10:00.150Z,95.90
2023-03-18T20:12:39.322Z,95.90
2023-03-18T20:15:12.546Z,96.20
2023-03-18T20:17:45.042Z,95.80
2023-03-18T20:20:19.785Z,96.00
2023-03-18T20:22:54.161Z,96.00
2023-03-18T20:25:30.007Z,96.30
2023-03-18T20:27:58.274Z,96.30
2023-03-18T20:30:37.371Z,96.60
2023-03-18T20:33:05.850Z,96.50
2023-03-18T20:35:41.767Z,96.90
2023-03-18T20:38:34.004Z,97.00
2023-03-18T20:41:01.837Z,97.40
2023-03-18T20:43:29.977Z,97.20
2023-03-18T20:45:59.361Z,97.30
2023-03-18T20:48:27.872Z,97.30
2023-03-18T20:50:56.214Z,97.50
2023-03-18T20:53:26.227Z,97.20
2023-03-18T20:55:53.379Z,97.20
2023-03-18T20:58:23.310Z,97.10
2023-03-18T21:00:52.374Z,97.50
2023-03-18T21:03:29.438Z,97.30
2023-03-18T21:05:58.786Z,97.50
2023-03-18T21:08:27.792Z,97.40
2023-03-18T21:10:56.241Z,97.90
2023-03-18T21:13:28.381Z,98.00
2023-03-18T21:15:56.549Z,98.30
2023-03-18T21:18:26.144Z,98.40
2023-03-18T21:20:54.340Z,98.60
2023-03-18T21:23:34.108Z,98.60
2023-03-18T21:26:02.020Z,98.90
2023-03-18T21:28:30.620Z,98.90
2023-03-18T21:30:58.731Z,99.30
2023-03-18T21:33:29.709Z,99.30
2023-03-18T21:35:57.861Z,99.70
2023-03-18T21:38:28.385Z,99.70
2023-03-18T21:40:56.639Z,99.90
2023-03-18T21:43:33.377Z,99.70
2023-03-18T21:46:02.648Z,99.90
2023-03-18T21:48:30.319Z,99.90
2023-03-18T21:50:58.228Z,99.90
2023-03-18T21:53:27.489Z,99.90
2023-03-18T21:55:55.017Z,99.90
2023-03-18T21:58:24.941Z,99.90
2023-03-18T22:00:54.715Z,99.90
2023-03-18T22:03:23.722Z,99.90
2023-03-18T22:05:52.322Z,99.90
2023-03-18T22:08:21.214Z,99.90
2023-03-18T22:10:50.597Z,99.90
2023-03-18T22:13:23.410Z,99.90
2023-03-18T22:15:54.696Z,99.90
2023-03-18T22:18:23.927Z,99.90
2023-03-18T22:20:51.781Z,99.90
2023-03-18T22:23:28.471Z,99.90
2023-03-18T22:25:57.424Z,99.90
2023-03-18T22:28:28.059Z,99.90
2023-03-18T22:30:55.915Z,99.90
2023-03-18T22:33:32.405Z,99.90
2023-03-18T22:36:00.079Z,99.90
2023-03-18T22:38:29.212Z,99.90
2023-03-18T22:40:57.498Z,99.90
2023-03-18T22:43:29.631Z,99.90
2023-03-18T22:45:58.380Z,99.90
2023-03-18T22:48:26.163Z,99.90
2023-03-18T22:50:53.804Z,99.90
2023-03-18T22:53:25.608Z,99.90
2023-03-18T22:55:55.004Z,99.90
2023-03-18T22:58:28.690Z,99.90
2023-03-18T23:00:56.110Z,99.90
2023-03-18T23:03:28.732Z,99.90
2023-03-18T23:05:57.120Z,99.90
2023-03-18T23:08:25.095Z,99.90
2023-03-18T23:10:53.747Z,99.90
2023-03-18T23:13:27.015Z,99.90
2023-03-18T23:15:54.372Z,99.90
2023-03-18T23:18:23.588Z,99.90
2023-03-18T23:20:51.916Z,99.90
2023-03-18T23:23:21.461Z,99.90
2023-03-18T23:25:50.675Z,99.90
2023-03-18T23:28:19.243Z,99.90
2023-03-18T23:30:52.278Z,99.90
2023-03-18T23:33:20.111Z,99.90
2023-03-18T23:35:48.203Z,99.90
2023-03-18T23:38:16.142Z,99.90
2023-03-18T23:40:43.352Z,99.90
2023-03-18T23:43:11.158Z,99.90
2023-03-18T23:45:39.012Z,99.90
2023-03-18T23:48:07.141Z,99.90
2023-03-18T23:50:34.638Z,99.90
2023-03-18T23:53:02.331Z,99.90
2023-03-18T23:55:36.677Z,99.90
2023-03-18T23:58:04.157Z,99.90
